Aérodrome :
LOGIN :

S'inscrire | Disclaimer

   EN    FR    IT 

 










Légende :    VFR   VFR Marginal   IFR   IFR Intensif   IFR Très Intensif
Visi : 
Plafond : 
>= 8 km
>= 3000ft
5 à 8 km
1000 à 3000 ft
1500m à 5 km
500 à 1000 ft
800 à 1500m
200 à 500 ft
< 800m
< 200 ft
Symboles :   Orages  Brouillard  Fortes neiges  Fortes précipitations  Vent > 20 kt
SIGMETs :   Divers  Orages  Givrage  Turbulence  Onde Orograph.  Cendres Volcan.






- Altitude de l'aérodrome : 659 ft
- Code IATA : LYN


LFLY - Lyon Bron

DERNIER METAR :
  • 310030Z AUTO 15003KT CAVOK 08/07 Q1025 BECMG 3000 BR

METARs EXPIRÉS :
  • 310000Z AUTO 15003KT CAVOK 08/07 Q1025 BECMG 3000 BR
  • 302330Z AUTO 13003KT CAVOK 09/08 Q1026 TEMPO 0800 FG BECMG OVC002
  • 302300Z AUTO VRB01KT 9000 NSC 09/08 Q1026 TEMPO 0800 FG BECMG OVC002
  • 302230Z AUTO 20002KT CAVOK 09/08 Q1026 TEMPO 0800 FG BECMG OVC002
  • 302200Z AUTO VRB02KT CAVOK 09/08 Q1026 TEMPO 0800 FG

TAF TAF LFLY
Valide du 31 à 00h jusqu'au 01 à 00h UTC


302300Z 3100/3124 VRB02KT 7000 NSC
BECMG 3101/3103 3000 BR
TEMPO 3103/3109 0800 FG OVC002
PROB40
TEMPO 3103/3108 0400 FG VV///
BECMG 3109/3111 16005KT CAVOK
ATIS : +33 4 72 15 87 96



MET'MAP, la Météo Aéronautique d'un coup d'oeil ! - Copyright ORBIFLY Décembre 2007 - Disclaimer

ORBIFLY MET'MAP TEAM :

Programmation & Développement : Alexandra Zaïnal
Sur une idée originale de : Baudouin d'Aumeries
Assistance à la programmation : Marc-Olivier Méhu
Soutien technique & logistique : Manuel Goepfert

Contact : metmap@orbifly.com




SOURCES & CREDITS :

   NOAA